sensor_id;sensor_type;location;lat;lon;timestamp;pressure;altitude;pressure_sealevel;temperature;humidity
44675;BME280;30388;52.038;-1.478;2023-04-02T00:01:27;65027.41;;;4.10;100.00
44675;BME280;30388;52.038;-1.478;2023-04-02T00:04:18;65047.58;;;4.36;100.00
44675;BME280;30388;52.038;-1.478;2023-04-02T00:06:45;65050.37;;;4.39;100.00
44675;BME280;30388;52.038;-1.478;2023-04-02T00:09:25;65056.28;;;4.48;100.00
44675;BME280;30388;52.038;-1.478;2023-04-02T00:11:55;65050.39;;;4.67;100.00
44675;BME280;30388;52.038;-1.478;2023-04-02T00:14:25;65045.70;;;4.34;100.00
44675;BME280;30388;52.038;-1.478;2023-04-02T00:16:54;65047.12;;;4.35;100.00
44675;BME280;30388;52.038;-1.478;2023-04-02T00:19:27;65049.62;;;4.17;100.00
44675;BME280;30388;52.038;-1.478;2023-04-02T00:21:57;65072.33;;;4.46;100.00
44675;BME280;30388;52.038;-1.478;2023-04-02T00:24:26;65071.38;;;4.66;100.00
44675;BME280;30388;52.038;-1.478;2023-04-02T00:26:54;65054.40;;;4.23;100.00
44675;BME280;30388;52.038;-1.478;2023-04-02T00:29:22;65065.09;;;4.36;100.00
44675;BME280;30388;52.038;-1.478;2023-04-02T00:31:50;65050.36;;;4.39;100.00
44675;BME280;30388;52.038;-1.478;2023-04-02T00:34:22;65039.54;;;4.25;100.00
44675;BME280;30388;52.038;-1.478;2023-04-02T00:36:49;65068.94;;;4.64;100.00
44675;BME280;30388;52.038;-1.478;2023-04-02T00:39:21;65076.73;;;4.51;100.00
44675;BME280;30388;52.038;-1.478;2023-04-02T00:41:50;65072.08;;;4.67;100.00
44675;BME280;30388;52.038;-1.478;2023-04-02T00:44:19;65069.17;;;4.42;100.00
44675;BME280;30388;52.038;-1.478;2023-04-02T00:46:48;65082.48;;;4.58;100.00
44675;BME280;30388;52.038;-1.478;2023-04-02T00:49:22;65078.68;;;4.53;100.00
44675;BME280;30388;52.038;-1.478;2023-04-02T00:51:53;65066.69;;;4.38;100.00
44675;BME280;30388;52.038;-1.478;2023-04-02T00:54:24;65079.92;;;4.55;100.00
44675;BME280;30388;52.038;-1.478;2023-04-02T00:56:59;65066.67;;;4.38;100.00
44675;BME280;30388;52.038;-1.478;2023-04-02T00:59:29;65067.31;;;4.39;100.00
44675;BME280;30388;52.038;-1.478;2023-04-02T01:01:59;65082.55;;;4.59;100.00
44675;BME280;30388;52.038;-1.478;2023-04-02T01:04:30;65089.27;;;4.66;100.00
44675;BME280;30388;52.038;-1.478;2023-04-02T01:06:57;65124.65;;;4.63;100.00
44675;BME280;30388;52.038;-1.478;2023-04-02T01:09:36;65120.94;;;4.59;100.00
44675;BME280;30388;52.038;-1.478;2023-04-02T01:12:20;65107.34;;;4.90;100.00
44675;BME280;30388;52.038;-1.478;2023-04-02T01:14:56;65091.94;;;4.71;100.00
44675;BME280;30388;52.038;-1.478;2023-04-02T01:17:36;65092.15;;;4.70;100.00
44675;BME280;30388;52.038;-1.478;2023-04-02T01:20:30;65109.99;;;4.71;100.00
44675;BME280;30388;52.038;-1.478;2023-04-02T01:23:06;65109.44;;;4.44;100.00
44675;BME280;30388;52.038;-1.478;2023-04-02T01:25:40;65110.35;;;4.93;100.00
44675;BME280;30388;52.038;-1.478;2023-04-02T01:28:14;65099.16;;;4.79;100.00
44675;BME280;30388;52.038;-1.478;2023-04-02T01:30:44;65085.29;;;4.62;100.00
44675;BME280;30388;52.038;-1.478;2023-04-02T01:33:12;65086.37;;;4.41;100.00
44675;BME280;30388;52.038;-1.478;2023-04-02T01:35:44;65110.28;;;4.93;100.00
44675;BME280;30388;52.038;-1.478;2023-04-02T01:38:14;65123.82;;;5.11;100.00
44675;BME280;30388;52.038;-1.478;2023-04-02T01:40:48;65115.19;;;4.99;100.00
44675;BME280;30388;52.038;-1.478;2023-04-02T01:43:25;65131.89;;;4.99;100.00
44675;BME280;30388;52.038;-1.478;2023-04-02T01:45:56;65145.38;;;4.89;100.00
44675;BME280;30388;52.038;-1.478;2023-04-02T01:48:27;65110.00;;;4.93;100.00
44675;BME280;30388;52.038;-1.478;2023-04-02T01:50:57;65133.12;;;5.00;100.00
44675;BME280;30388;52.038;-1.478;2023-04-02T01:53:27;65113.67;;;4.97;100.00
44675;BME280;30388;52.038;-1.478;2023-04-02T01:55:57;65096.54;;;4.76;100.00
44675;BME280;30388;52.038;-1.478;2023-04-02T01:58:28;65125.83;;;4.91;100.00
44675;BME280;30388;52.038;-1.478;2023-04-02T02:00:59;65145.22;;;5.38;100.00
44675;BME280;30388;52.038;-1.478;2023-04-02T02:03:28;65138.79;;;4.80;100.00
44675;BME280;30388;52.038;-1.478;2023-04-02T02:05:57;65144.16;;;4.87;100.00
44675;BME280;30388;52.038;-1.478;2023-04-02T02:08:32;65173.56;;;5.25;100.00
44675;BME280;30388;52.038;-1.478;2023-04-02T02:11:00;65139.20;;;5.08;100.00
44675;BME280;30388;52.038;-1.478;2023-04-02T02:13:27;65134.49;;;5.02;100.00
44675;BME280;30388;52.038;-1.478;2023-04-02T02:15:57;65127.87;;;5.16;100.00
44675;BME280;30388;52.038;-1.478;2023-04-02T02:18:25;65117.93;;;5.03;100.00
44675;BME280;30388;52.038;-1.478;2023-04-02T02:20:54;65100.38;;;4.59;100.00
44675;BME280;30388;52.038;-1.478;2023-04-02T02:23:24;65090.72;;;4.68;100.00
44675;BME280;30388;52.038;-1.478;2023-04-02T02:25:54;65103.42;;;4.63;100.00
44675;BME280;30388;52.038;-1.478;2023-04-02T02:28:23;65119.08;;;5.04;100.00
44675;BME280;30388;52.038;-1.478;2023-04-02T02:30:54;65085.44;;;4.40;100.00
44675;BME280;30388;52.038;-1.478;2023-04-02T02:33:25;65069.39;;;4.42;100.00
44675;BME280;30388;52.038;-1.478;2023-04-02T02:35:56;65082.09;;;4.58;100.00
44675;BME280;30388;52.038;-1.478;2023-04-02T02:38:36;65079.24;;;4.76;100.00
44675;BME280;30388;52.038;-1.478;2023-04-02T02:41:12;65092.58;;;4.71;100.00
44675;BME280;30388;52.038;-1.478;2023-04-02T02:43:50;65071.65;;;4.45;100.00
44675;BME280;30388;52.038;-1.478;2023-04-02T02:46:21;65071.02;;;4.44;100.00
44675;BME280;30388;52.038;-1.478;2023-04-02T02:48:56;65071.06;;;4.44;100.00
44675;BME280;30388;52.038;-1.478;2023-04-02T02:51:28;65067.85;;;4.62;100.00
44675;BME280;30388;52.038;-1.478;2023-04-02T02:53:59;65083.07;;;4.59;100.00
44675;BME280;30388;52.038;-1.478;2023-04-02T02:56:30;65075.21;;;4.49;100.00
44675;BME280;30388;52.038;-1.478;2023-04-02T02:59:00;65070.73;;;4.43;100.00
44675;BME280;30388;52.038;-1.478;2023-04-02T03:01:29;65084.76;;;4.84;100.00
44675;BME280;30388;52.038;-1.478;2023-04-02T03:03:57;65100.10;;;4.81;100.00
44675;BME280;30388;52.038;-1.478;2023-04-02T03:06:24;65110.19;;;4.71;100.00
44675;BME280;30388;52.038;-1.478;2023-04-02T03:08:58;65111.53;;;4.73;100.00
44675;BME280;30388;52.038;-1.478;2023-04-02T03:11:33;65155.17;;;5.02;100.00
44675;BME280;30388;52.038;-1.478;2023-04-02T03:14:15;65139.43;;;4.82;100.00
44675;BME280;30388;52.038;-1.478;2023-04-02T03:16:48;65113.35;;;4.75;100.00
44675;BME280;30388;52.038;-1.478;2023-04-02T03:19:27;65077.45;;;4.51;100.00
44675;BME280;30388;52.038;-1.478;2023-04-02T03:21:57;65069.14;;;4.40;100.00
44675;BME280;30388;52.038;-1.478;2023-04-02T03:24:31;65080.76;;;4.56;100.00
44675;BME280;30388;52.038;-1.478;2023-04-02T03:27:03;65094.43;;;4.51;100.00
44675;BME280;30388;52.038;-1.478;2023-04-02T03:29:35;65115.87;;;4.77;100.00
44675;BME280;30388;52.038;-1.478;2023-04-02T03:32:10;65128.52;;;4.94;100.00
44675;BME280;30388;52.038;-1.478;2023-04-02T03:34:41;65111.46;;;4.95;100.00
44675;BME280;30388;52.038;-1.478;2023-04-02T03:37:15;65049.95;;;4.38;100.00
44675;BME280;30388;52.038;-1.478;2023-04-02T03:39:48;65080.67;;;4.55;100.00
44675;BME280;30388;52.038;-1.478;2023-04-02T03:42:20;65113.06;;;4.97;100.00
44675;BME280;30388;52.038;-1.478;2023-04-02T03:44:52;65136.08;;;4.77;100.00
44675;BME280;30388;52.038;-1.478;2023-04-02T03:47:29;65093.14;;;4.49;100.00
44675;BME280;30388;52.038;-1.478;2023-04-02T03:50:02;65078.31;;;4.53;100.00
44675;BME280;30388;52.038;-1.478;2023-04-02T03:52:35;65061.28;;;4.53;100.00
44675;BME280;30388;52.038;-1.478;2023-04-02T03:55:10;65091.78;;;4.69;100.00
44675;BME280;30388;52.038;-1.478;2023-04-02T03:57:42;65067.28;;;4.39;100.00
44675;BME280;30388;52.038;-1.478;2023-04-02T04:00:18;65145.60;;;4.90;100.00
44675;BME280;30388;52.038;-1.478;2023-04-02T04:02:49;65111.27;;;4.72;100.00
44675;BME280;30388;52.038;-1.478;2023-04-02T04:05:22;65119.81;;;4.83;100.00
44675;BME280;30388;52.038;-1.478;2023-04-02T04:07:52;65098.89;;;4.79;100.00
44675;BME280;30388;52.038;-1.478;2023-04-02T04:10:24;65099.09;;;4.79;100.00
44675;BME280;30388;52.038;-1.478;2023-04-02T04:12:55;65064.97;;;4.58;100.00
44675;BME280;30388;52.038;-1.478;2023-04-02T04:15:29;65049.25;;;4.38;100.00
44675;BME280;30388;52.038;-1.478;2023-04-02T04:18:01;65037.91;;;4.51;100.00
44675;BME280;30388;52.038;-1.478;2023-04-02T04:20:33;65041.46;;;4.28;100.00
44675;BME280;30388;52.038;-1.478;2023-04-02T04:23:17;65065.90;;;4.36;100.00
44675;BME280;30388;52.038;-1.478;2023-04-02T04:25:45;65070.48;;;4.42;100.00
44675;BME280;30388;52.038;-1.478;2023-04-02T04:28:20;65037.47;;;4.49;100.00
44675;BME280;30388;52.038;-1.478;2023-04-02T04:30:52;65057.79;;;4.48;100.00
44675;BME280;30388;52.038;-1.478;2023-04-02T04:33:25;65023.06;;;4.31;100.00
44675;BME280;30388;52.038;-1.478;2023-04-02T04:35:56;65016.83;;;3.97;100.00
44675;BME280;30388;52.038;-1.478;2023-04-02T04:38:31;65020.44;;;4.28;100.00
44675;BME280;30388;52.038;-1.478;2023-04-02T04:41:02;64989.34;;;4.11;100.00
44675;BME280;30388;52.038;-1.478;2023-04-02T04:43:38;64985.17;;;3.83;100.00
44675;BME280;30388;52.038;-1.478;2023-04-02T04:46:11;64989.71;;;3.89;100.00
44675;BME280;30388;52.038;-1.478;2023-04-02T04:48:47;64998.52;;;4.00;100.00
44675;BME280;30388;52.038;-1.478;2023-04-02T04:51:19;65010.92;;;4.16;100.00
44675;BME280;30388;52.038;-1.478;2023-04-02T04:53:50;65008.13;;;4.12;100.00
44675;BME280;30388;52.038;-1.478;2023-04-02T04:56:22;65038.70;;;4.24;100.00
44675;BME280;30388;52.038;-1.478;2023-04-02T04:58:53;65029.21;;;4.13;100.00
44675;BME280;30388;52.038;-1.478;2023-04-02T05:01:26;65037.14;;;4.23;100.00
44675;BME280;30388;52.038;-1.478;2023-04-02T05:04:02;65044.39;;;4.59;100.00
44675;BME280;30388;52.038;-1.478;2023-04-02T05:06:35;65030.38;;;4.14;100.00
44675;BME280;30388;52.038;-1.478;2023-04-02T05:09:11;65050.82;;;4.40;100.00
44675;BME280;30388;52.038;-1.478;2023-04-02T05:11:43;65040.03;;;4.26;100.00
44675;BME280;30388;52.038;-1.478;2023-04-02T05:14:20;65052.74;;;4.69;100.00
44675;BME280;30388;52.038;-1.478;2023-04-02T05:16:51;65044.63;;;4.32;100.00
44675;BME280;30388;52.038;-1.478;2023-04-02T05:19:27;65046.70;;;4.61;100.00
44675;BME280;30388;52.038;-1.478;2023-04-02T05:21:59;65028.64;;;4.11;100.00
44675;BME280;30388;52.038;-1.478;2023-04-02T05:24:42;65054.56;;;4.23;100.00
44675;BME280;30388;52.038;-1.478;2023-04-02T05:27:21;65060.24;;;4.30;100.00
44675;BME280;30388;52.038;-1.478;2023-04-02T05:29:55;65054.33;;;4.44;100.00
44675;BME280;30388;52.038;-1.478;2023-04-02T05:32:28;65051.74;;;4.19;100.00
44675;BME280;30388;52.038;-1.478;2023-04-02T05:34:57;65067.12;;;4.61;100.00
44675;BME280;30388;52.038;-1.478;2023-04-02T05:37:27;65038.31;;;4.24;100.00
44675;BME280;30388;52.038;-1.478;2023-04-02T05:39:57;65016.81;;;4.23;100.00
44675;BME280;30388;52.038;-1.478;2023-04-02T05:42:28;64981.73;;;3.78;100.00
44675;BME280;30388;52.038;-1.478;2023-04-02T05:45:05;64966.13;;;3.59;100.00
44675;BME280;30388;52.038;-1.478;2023-04-02T05:47:36;64978.53;;;3.74;100.00
44675;BME280;30388;52.038;-1.478;2023-04-02T05:50:16;64978.71;;;3.75;100.00
44675;BME280;30388;52.038;-1.478;2023-04-02T05:52:50;64962.34;;;4.03;100.00
44675;BME280;30388;52.038;-1.478;2023-04-02T05:55:29;64937.73;;;3.23;100.00
44675;BME280;30388;52.038;-1.478;2023-04-02T05:58:03;64975.20;;;3.69;100.00
44675;BME280;30388;52.038;-1.478;2023-04-02T06:00:48;64980.93;;;3.99;100.00
44675;BME280;30388;52.038;-1.478;2023-04-02T06:03:23;64972.59;;;3.67;100.00
44675;BME280;30388;52.038;-1.478;2023-04-02T06:05:51;64979.66;;;3.76;100.00
44675;BME280;30388;52.038;-1.478;2023-04-02T06:08:22;64990.48;;;3.90;100.00
44675;BME280;30388;52.038;-1.478;2023-04-02T06:10:55;64994.89;;;3.95;100.00
44675;BME280;30388;52.038;-1.478;2023-04-02T06:13:26;64980.73;;;4.26;100.00
44675;BME280;30388;52.038;-1.478;2023-04-02T06:15:54;64979.89;;;3.77;100.00
44675;BME280;30388;52.038;-1.478;2023-04-02T06:18:24;65000.85;;;4.03;100.00
44675;BME280;30388;52.038;-1.478;2023-04-02T06:20:52;65009.42;;;4.14;100.00
44675;BME280;30388;52.038;-1.478;2023-04-02T06:23:22;64992.18;;;3.92;100.00
44675;BME280;30388;52.038;-1.478;2023-04-02T06:25:54;65010.12;;;3.88;100.00
44675;BME280;30388;52.038;-1.478;2023-04-02T06:28:26;64977.08;;;3.72;100.00
44675;BME280;30388;52.038;-1.478;2023-04-02T06:31:00;64965.56;;;3.58;100.00
44675;BME280;30388;52.038;-1.478;2023-04-02T06:33:31;64983.29;;;3.81;100.00
44675;BME280;30388;52.038;-1.478;2023-04-02T06:36:00;64979.00;;;3.75;100.00
44675;BME280;30388;52.038;-1.478;2023-04-02T06:38:30;64967.35;;;3.83;100.00
44675;BME280;30388;52.038;-1.478;2023-04-02T06:41:00;64966.99;;;3.60;100.00
44675;BME280;30388;52.038;-1.478;2023-04-02T06:43:33;64996.42;;;3.71;100.00
44675;BME280;30388;52.038;-1.478;2023-04-02T06:46:04;65002.65;;;3.79;100.00
44675;BME280;30388;52.038;-1.478;2023-04-02T06:48:35;65000.56;;;4.02;100.00
44675;BME280;30388;52.038;-1.478;2023-04-02T06:51:06;64997.71;;;3.99;100.00
44675;BME280;30388;52.038;-1.478;2023-04-02T06:53:36;65010.56;;;4.15;100.00
44675;BME280;30388;52.038;-1.478;2023-04-02T06:56:09;65009.29;;;3.87;100.00
44675;BME280;30388;52.038;-1.478;2023-04-02T06:58:39;65005.07;;;4.09;100.00
44675;BME280;30388;52.038;-1.478;2023-04-02T07:01:06;64983.27;;;3.54;100.00
44675;BME280;30388;52.038;-1.478;2023-04-02T07:03:34;64998.50;;;4.00;100.00
44675;BME280;30388;52.038;-1.478;2023-04-02T07:06:02;64975.87;;;3.70;100.00
44675;BME280;30388;52.038;-1.478;2023-04-02T07:08:30;64963.54;;;3.55;100.00
44675;BME280;30388;52.038;-1.478;2023-04-02T07:10:57;64965.95;;;4.07;100.00
44675;BME280;30388;52.038;-1.478;2023-04-02T07:13:25;64952.14;;;3.89;100.00
44675;BME280;30388;52.038;-1.478;2023-04-02T07:15:54;64939.41;;;3.74;100.00
44675;BME280;30388;52.038;-1.478;2023-04-02T07:18:23;64970.69;;;3.87;100.00
44675;BME280;30388;52.038;-1.478;2023-04-02T07:20:51;64973.13;;;3.68;100.00
44675;BME280;30388;52.038;-1.478;2023-04-02T07:23:19;64976.44;;;3.72;100.00
44675;BME280;30388;52.038;-1.478;2023-04-02T07:25:46;64957.71;;;3.96;100.00
44675;BME280;30388;52.038;-1.478;2023-04-02T07:28:13;64985.42;;;3.83;100.00
44675;BME280;30388;52.038;-1.478;2023-04-02T07:30:41;64988.41;;;3.87;100.00
44675;BME280;30388;52.038;-1.478;2023-04-02T07:33:11;64935.51;;;3.68;100.00
44675;BME280;30388;52.038;-1.478;2023-04-02T07:35:39;64950.30;;;3.39;100.00
44675;BME280;30388;52.038;-1.478;2023-04-02T07:38:07;64951.12;;;3.61;100.00
44675;BME280;30388;52.038;-1.478;2023-04-02T07:40:34;64979.68;;;3.76;100.00
44675;BME280;30388;52.038;-1.478;2023-04-02T07:43:02;64992.99;;;3.93;100.00
44675;BME280;30388;52.038;-1.478;2023-04-02T07:45:29;64963.63;;;3.55;100.00
44675;BME280;30388;52.038;-1.478;2023-04-02T07:47:56;64943.61;;;3.52;100.00
44675;BME280;30388;52.038;-1.478;2023-04-02T07:50:23;64943.79;;;3.79;100.00
44675;BME280;30388;52.038;-1.478;2023-04-02T07:52:51;64946.88;;;3.83;100.00
44675;BME280;30388;52.038;-1.478;2023-04-02T07:55:18;64945.24;;;3.81;100.00
44675;BME280;30388;52.038;-1.478;2023-04-02T07:57:48;64960.10;;;3.74;100.00
44675;BME280;30388;52.038;-1.478;2023-04-02T08:00:16;64957.96;;;3.48;100.00
44675;BME280;30388;52.038;-1.478;2023-04-02T08:02:44;64946.01;;;3.82;100.00
44675;BME280;30388;52.038;-1.478;2023-04-02T08:05:12;64972.54;;;3.67;100.00
44675;BME280;30388;52.038;-1.478;2023-04-02T08:07:40;64944.36;;;3.53;100.00
44675;BME280;30388;52.038;-1.478;2023-04-02T08:10:10;64931.95;;;3.64;100.00
44675;BME280;30388;52.038;-1.478;2023-04-02T08:12:38;64965.54;;;3.58;100.00
44675;BME280;30388;52.038;-1.478;2023-04-02T08:15:06;64929.16;;;3.60;100.00
44675;BME280;30388;52.038;-1.478;2023-04-02T08:17:33;64916.59;;;2.95;100.00
44675;BME280;30388;52.038;-1.478;2023-04-02T08:20:01;64960.94;;;3.53;100.00
44675;BME280;30388;52.038;-1.478;2023-04-02T08:22:29;64988.69;;;3.61;100.00
44675;BME280;30388;52.038;-1.478;2023-04-02T08:24:56;64974.16;;;3.69;100.00
44675;BME280;30388;52.038;-1.478;2023-04-02T08:27:24;64997.03;;;3.99;100.00
44675;BME280;30388;52.038;-1.478;2023-04-02T08:29:51;65002.13;;;4.04;100.00
44675;BME280;30388;52.038;-1.478;2023-04-02T08:32:18;64987.26;;;3.86;100.00
44675;BME280;30388;52.038;-1.478;2023-04-02T08:34:45;65001.45;;;3.77;100.00
44675;BME280;30388;52.038;-1.478;2023-04-02T08:37:13;65007.79;;;3.85;100.00
44675;BME280;30388;52.038;-1.478;2023-04-02T08:39:40;64982.00;;;3.79;100.00
44675;BME280;30388;52.038;-1.478;2023-04-02T08:42:19;64965.90;;;3.58;100.00
44675;BME280;30388;52.038;-1.478;2023-04-02T08:44:54;64953.43;;;3.65;100.00
44675;BME280;30388;52.038;-1.478;2023-04-02T08:47:29;64955.42;;;3.45;100.00
44675;BME280;30388;52.038;-1.478;2023-04-02T08:49:58;64953.79;;;3.44;100.00
44675;BME280;30388;52.038;-1.478;2023-04-02T08:52:30;64964.29;;;3.78;100.00
44675;BME280;30388;52.038;-1.478;2023-04-02T08:55:00;64971.59;;;3.66;100.00
44675;BME280;30388;52.038;-1.478;2023-04-02T08:57:34;64982.79;;;3.80;100.00
44675;BME280;30388;52.038;-1.478;2023-04-02T09:00:09;65010.44;;;3.88;100.00
44675;BME280;30388;52.038;-1.478;2023-04-02T09:02:52;65031.56;;;4.16;100.00
44675;BME280;30388;52.038;-1.478;2023-04-02T09:05:24;65009.54;;;3.88;100.00
44675;BME280;30388;52.038;-1.478;2023-04-02T09:07:52;65028.12;;;4.11;100.00
44675;BME280;30388;52.038;-1.478;2023-04-02T09:10:20;65036.36;;;4.22;100.00
44675;BME280;30388;52.038;-1.478;2023-04-02T09:12:51;65011.01;;;4.16;100.00
44675;BME280;30388;52.038;-1.478;2023-04-02T09:15:27;64998.61;;;3.73;100.00
44675;BME280;30388;52.038;-1.478;2023-04-02T09:17:56;65016.31;;;4.23;100.00
44675;BME280;30388;52.038;-1.478;2023-04-02T09:20:26;65029.43;;;4.13;100.00
44675;BME280;30388;52.038;-1.478;2023-04-02T09:22:53;65033.67;;;4.18;100.00
44675;BME280;30388;52.038;-1.478;2023-04-02T09:25:23;65065.67;;;4.36;100.00
44675;BME280;30388;52.038;-1.478;2023-04-02T09:27:53;65029.95;;;4.13;100.00
44675;BME280;30388;52.038;-1.478;2023-04-02T09:30:30;65042.03;;;4.07;100.00
44675;BME280;30388;52.038;-1.478;2023-04-02T09:33:04;65041.66;;;4.28;100.00
44675;BME280;30388;52.038;-1.478;2023-04-02T09:35:34;65000.45;;;4.03;100.00
44675;BME280;30388;52.038;-1.478;2023-04-02T09:38:18;65011.57;;;4.17;100.00
44675;BME280;30388;52.038;-1.478;2023-04-02T09:40:49;65042.03;;;4.28;100.00
44675;BME280;30388;52.038;-1.478;2023-04-02T09:43:19;65015.45;;;4.22;100.00
44675;BME280;30388;52.038;-1.478;2023-04-02T09:45:56;65005.75;;;4.09;100.00
44675;BME280;30388;52.038;-1.478;2023-04-02T09:48:26;65043.18;;;4.30;100.00
44675;BME280;30388;52.038;-1.478;2023-04-02T09:51:11;65072.06;;;4.67;100.00
44675;BME280;30388;52.038;-1.478;2023-04-02T09:53:41;65060.97;;;4.53;100.00
44675;BME280;30388;52.038;-1.478;2023-04-02T09:56:13;65066.97;;;4.39;100.00
44675;BME280;30388;52.038;-1.478;2023-04-02T09:58:43;65075.82;;;4.50;100.00
44675;BME280;30388;52.038;-1.478;2023-04-02T10:01:43;65092.33;;;4.93;100.00
44675;BME280;30388;52.038;-1.478;2023-04-02T10:04:34;65067.46;;;4.61;100.00
44675;BME280;30388;52.038;-1.478;2023-04-02T10:07:03;65061.21;;;4.53;100.00
44675;BME280;30388;52.038;-1.478;2023-04-02T10:09:33;65043.19;;;4.57;100.00
44675;BME280;30388;52.038;-1.478;2023-04-02T10:12:03;65047.42;;;4.62;100.00
44675;BME280;30388;52.038;-1.478;2023-04-02T10:14:34;65089.04;;;4.88;100.00
44675;BME280;30388;52.038;-1.478;2023-04-02T10:17:09;65082.27;;;4.80;100.00
44675;BME280;30388;52.038;-1.478;2023-04-02T10:19:40;65100.65;;;4.81;100.00
44675;BME280;30388;52.038;-1.478;2023-04-02T10:22:13;65075.39;;;4.71;100.00
44675;BME280;30388;52.038;-1.478;2023-04-02T10:24:40;65059.85;;;4.51;100.00
44675;BME280;30388;52.038;-1.478;2023-04-02T10:27:17;65100.34;;;4.81;100.00
44675;BME280;30388;52.038;-1.478;2023-04-02T10:29:57;65113.81;;;4.98;100.00
44675;BME280;30388;52.038;-1.478;2023-04-02T10:32:37;65132.55;;;5.21;100.00
44675;BME280;30388;52.038;-1.478;2023-04-02T10:35:14;65137.27;;;5.27;100.00
44675;BME280;30388;52.038;-1.478;2023-04-02T10:37:56;65157.48;;;5.53;100.00
44675;BME280;30388;52.038;-1.478;2023-04-02T10:40:28;65149.84;;;5.21;100.00
44675;BME280;30388;52.038;-1.478;2023-04-02T10:43:25;65170.26;;;5.21;100.00
44675;BME280;30388;52.038;-1.478;2023-04-02T10:46:00;65204.51;;;5.91;100.00
44675;BME280;30388;52.038;-1.478;2023-04-02T10:48:36;65197.65;;;5.82;100.00
44675;BME280;30388;52.038;-1.478;2023-04-02T10:51:09;65179.99;;;5.82;100.00
44675;BME280;30388;52.038;-1.478;2023-04-02T10:53:45;65242.66;;;6.12;100.00
44675;BME280;30388;52.038;-1.478;2023-04-02T10:56:16;65251.14;;;6.23;100.00
44675;BME280;30388;52.038;-1.478;2023-04-02T10:58:51;65217.30;;;6.28;100.00
44675;BME280;30388;52.038;-1.478;2023-04-02T11:01:23;65233.14;;;6.00;100.00
44675;BME280;30388;52.038;-1.478;2023-04-02T11:03:54;65244.40;;;6.15;100.00
44675;BME280;30388;52.038;-1.478;2023-04-02T11:06:27;65223.17;;;6.14;100.00
44675;BME280;30388;52.038;-1.478;2023-04-02T11:08:59;65201.79;;;5.60;100.00
44675;BME280;30388;52.038;-1.478;2023-04-02T11:11:33;65207.28;;;6.16;100.00
44675;BME280;30388;52.038;-1.478;2023-04-02T11:14:04;65208.64;;;6.18;100.00
44675;BME280;30388;52.038;-1.478;2023-04-02T11:16:36;65260.13;;;6.35;100.00
44675;BME280;30388;52.038;-1.478;2023-04-02T11:19:36;65311.86;;;6.78;100.00
44675;BME280;30388;52.038;-1.478;2023-04-02T11:22:13;65267.04;;;6.43;100.00
44675;BME280;30388;52.038;-1.478;2023-04-02T11:24:43;65281.10;;;6.61;100.00
44675;BME280;30388;52.038;-1.478;2023-04-02T11:27:16;65277.61;;;6.57;100.00
44675;BME280;30388;52.038;-1.478;2023-04-02T11:29:48;65305.81;;;6.92;100.00
44675;BME280;30388;52.038;-1.478;2023-04-02T11:32:49;65361.77;;;7.41;100.00
44675;BME280;30388;52.038;-1.478;2023-04-02T11:35:35;65348.84;;;7.47;100.00
44675;BME280;30388;52.038;-1.478;2023-04-02T11:38:48;65380.07;;;7.43;100.00
44675;BME280;30388;52.038;-1.478;2023-04-02T11:42:00;65401.85;;;7.43;100.00
44675;BME280;30388;52.038;-1.478;2023-04-02T11:44:27;65366.11;;;7.25;100.00
44675;BME280;30388;52.038;-1.478;2023-04-02T11:47:15;65363.60;;;7.22;100.00
44675;BME280;30388;52.038;-1.478;2023-04-02T11:50:47;65325.05;;;7.17;100.00
44675;BME280;30388;52.038;-1.478;2023-04-02T11:53:21;65318.04;;;6.86;100.00
44675;BME280;30388;52.038;-1.478;2023-04-02T11:56:06;65434.19;;;8.11;100.00
44675;BME280;30388;52.038;-1.478;2023-04-02T11:58:44;65400.88;;;7.69;100.00
44675;BME280;30388;52.038;-1.478;2023-04-02T12:02:23;65414.42;;;7.87;100.00
44675;BME280;30388;52.038;-1.478;2023-04-02T12:05:02;65432.03;;;8.09;100.00
44675;BME280;30388;52.038;-1.478;2023-04-02T12:07:48;65467.36;;;8.04;100.00
44675;BME280;30388;52.038;-1.478;2023-04-02T12:10:19;65417.87;;;7.64;100.00
44675;BME280;30388;52.038;-1.478;2023-04-02T12:12:47;65539.35;;;8.47;100.00
44675;BME280;30388;52.038;-1.478;2023-04-02T12:15:36;65601.97;;;9.26;100.00
44675;BME280;30388;52.038;-1.478;2023-04-02T12:18:13;65620.68;;;9.28;100.00
44675;BME280;30388;52.038;-1.478;2023-04-02T12:20:46;65643.06;;;9.29;100.00
44675;BME280;30388;52.038;-1.478;2023-04-02T12:23:18;65640.43;;;9.74;100.00
44675;BME280;30388;52.038;-1.478;2023-04-02T12:25:54;65514.53;;;8.64;100.00
44675;BME280;30388;52.038;-1.478;2023-04-02T12:28:22;65561.31;;;8.97;100.00
44675;BME280;30388;52.038;-1.478;2023-04-02T12:30:50;65620.54;;;9.70;100.00
44675;BME280;30388;52.038;-1.478;2023-04-02T12:33:29;65549.92;;;8.82;100.00
44675;BME280;30388;52.038;-1.478;2023-04-02T12:35:58;65583.03;;;9.50;100.00
44675;BME280;30388;52.038;-1.478;2023-04-02T12:38:28;65583.97;;;9.53;100.00
44675;BME280;30388;52.038;-1.478;2023-04-02T12:40:56;65601.50;;;9.04;100.00
44675;BME280;30388;52.038;-1.478;2023-04-02T12:43:26;65542.01;;;8.50;100.00
44675;BME280;30388;52.038;-1.478;2023-04-02T12:45:55;65590.06;;;9.11;100.00
44675;BME280;30388;52.038;-1.478;2023-04-02T12:48:24;65575.90;;;9.42;100.00
44675;BME280;30388;52.038;-1.478;2023-04-02T12:50:52;65539.38;;;8.96;100.00
44675;BME280;30388;52.038;-1.478;2023-04-02T12:53:21;65436.97;;;7.88;100.00
44675;BME280;30388;52.038;-1.478;2023-04-02T12:55:51;65462.51;;;8.48;100.00
44675;BME280;30388;52.038;-1.478;2023-04-02T12:58:34;65593.24;;;9.64;100.00
44675;BME280;30388;52.038;-1.478;2023-04-02T13:01:12;65633.16;;;9.65;100.00
44675;BME280;30388;52.038;-1.478;2023-04-02T13:03:40;65712.74;;;10.66;100.00
44675;BME280;30388;52.038;-1.478;2023-04-02T13:06:20;65652.20;;;9.90;100.00
44675;BME280;30388;52.038;-1.478;2023-04-02T13:08:48;65453.85;;;7.87;100.00
44675;BME280;30388;52.038;-1.478;2023-04-02T13:11:15;65377.52;;;7.61;100.00
44675;BME280;30388;52.038;-1.478;2023-04-02T13:13:43;65439.63;;;8.18;100.00
44675;BME280;30388;52.038;-1.478;2023-04-02T13:16:42;65466.01;;;8.25;100.00
44675;BME280;30388;52.038;-1.478;2023-04-02T13:19:21;65633.72;;;9.66;100.00
44675;BME280;30388;52.038;-1.478;2023-04-02T13:21:48;65778.13;;;11.00;100.00